Time;durP1;ratioP1;P1;durP2;ratioP2;P2;SDS_P1;SDS_P2;PMS_P1;PMS_P2;Temp;Humidity;BMP_temperature;BMP_pressure;BME280_temperature;BME280_humidity;BME280_pressure;Samples;Min_cycle;Max_cycle;Signal;HPM_P1;HPM_P2
2020/12/08 00:54:50;;;;;;;3.73;3.43;;;7.80;99.90;;;;;;4077976;34;20290;31
2020/12/08 00:57:21;;;;;;;3.70;3.30;;;7.90;99.90;;;;;;4085100;32;20360;31
2020/12/08 00:59:56;;;;;;;3.57;3.27;;;7.90;99.90;;;;;;4102132;26;20311;31
2020/12/08 01:04:53;;;;;;;3.50;3.20;;;8.00;99.90;;;;;;4077902;34;20519;31
2020/12/08 01:07:23;;;;;;;3.40;3.10;;;8.00;99.90;;;;;;4096242;32;20589;31
2020/12/08 01:09:54;;;;;;;4.60;3.70;;;7.90;99.90;;;;;;4062938;33;20848;31
2020/12/08 01:14:51;;;;;;;4.60;3.33;;;7.90;99.90;;;;;;4051311;27;21186;31
2020/12/08 01:17:21;;;;;;;4.50;3.50;;;8.00;99.90;;;;;;4064779;27;20831;31
2020/12/08 01:19:51;;;;;;;4.20;3.80;;;8.00;99.90;;;;;;4077564;32;21322;31
2020/12/08 02:13:45;;;;;;;4.57;4.10;;;8.00;99.90;;;;;;4100381;27;20254;31
2020/12/08 02:16:15;;;;;;;7.40;3.47;;;8.00;99.90;;;;;;4078621;26;20597;31
2020/12/08 02:26:08;;;;;;;4.55;4.00;;;7.90;99.90;;;;;;4071345;34;20402;31
2020/12/08 02:28:39;;;;;;;4.25;3.85;;;8.00;99.90;;;;;;4102992;26;21497;31
2020/12/08 02:45:55;;;;;;;4.30;3.80;;;8.00;99.90;;;;;;4067105;27;20566;31
2020/12/08 02:48:26;;;;;;;4.40;4.00;;;8.00;99.90;;;;;;4103240;32;21307;31
2020/12/08 02:50:56;;;;;;;4.63;4.23;;;8.10;99.90;;;;;;4083354;32;20268;31
2020/12/08 02:53:26;;;;;;;4.20;3.80;;;8.00;99.90;;;;;;4102711;32;20543;31
2020/12/08 03:03:19;;;;;;;5.93;4.23;;;8.10;99.90;;;;;;4052627;27;21486;31
2020/12/08 03:05:50;;;;;;;4.20;3.80;;;8.00;99.90;;;;;;4063774;32;20259;31
2020/12/08 03:30:32;;;;;;;4.03;3.63;;;7.90;99.90;;;;;;4103088;32;20375;31
2020/12/08 03:33:03;;;;;;;5.37;3.87;;;7.80;99.90;;;;;;4063704;32;21262;31
2020/12/08 04:13:02;;;;;;;4.53;3.83;;;7.70;99.90;;;;;;4114078;26;20265;31
2020/12/08 04:17:59;;;;;;;4.30;3.68;;;7.70;99.90;;;;;;4078225;34;20794;31
2020/12/08 06:17:43;;;;;;;7.85;6.15;;;7.60;99.90;;;;;;4074134;26;21029;31
2020/12/08 06:20:14;;;;;;;7.50;6.45;;;7.60;99.90;;;;;;4070893;32;21481;31
2020/12/08 07:07:00;;;;;;;7.57;6.83;;;7.60;99.90;;;;;;5123822;27;20685;-91
2020/12/08 07:09:31;;;;;;;9.00;6.80;;;7.50;99.90;;;;;;5097420;28;20301;-92
2020/12/08 07:12:01;;;;;;;8.83;6.37;;;7.50;99.90;;;;;;5078399;28;20203;-91
2020/12/08 07:14:28;;;;;;;7.60;6.80;;;7.60;99.90;;;;;;5076798;28;20511;-91
2020/12/08 07:16:55;;;;;;;7.17;6.27;;;7.60;99.90;;;;;;5095734;28;20230;-92
2020/12/08 07:19:21;;;;;;;8.77;6.90;;;7.60;99.90;;;;;;5096318;28;20273;-92
2020/12/08 07:21:56;;;;;;;7.00;5.53;;;7.60;99.90;;;;;;5096704;28;20255;-91
2020/12/08 07:24:26;;;;;;;7.40;6.40;;;7.60;99.90;;;;;;5098969;28;20243;-92
2020/12/08 07:26:57;;;;;;;7.50;6.17;;;7.50;99.90;;;;;;5120517;28;20217;-92
2020/12/08 07:29:24;;;;;;;8.67;6.37;;;7.50;99.90;;;;;;5115091;28;20201;-92
2020/12/08 07:31:51;;;;;;;8.77;6.20;;;7.50;99.90;;;;;;5099083;28;20236;-91
2020/12/08 07:34:19;;;;;;;8.40;6.83;;;7.60;99.90;;;;;;5114448;28;20200;-91
2020/12/08 07:36:46;;;;;;;9.60;6.20;;;7.60;99.90;;;;;;5128538;28;20231;-92
2020/12/08 07:39:16;;;;;;;6.77;6.07;;;7.60;99.90;;;;;;5114574;28;20217;-92
2020/12/08 07:41:45;;;;;;;9.60;6.63;;;7.60;99.90;;;;;;5095567;28;20263;-92
2020/12/08 07:44:12;;;;;;;7.33;5.97;;;7.60;99.90;;;;;;5096776;28;20212;-92
2020/12/08 07:46:48;;;;;;;9.13;6.33;;;7.60;99.90;;;;;;5100278;28;20213;-92
2020/12/08 07:49:15;;;;;;;7.93;5.90;;;7.60;99.90;;;;;;5095346;28;20208;-92
2020/12/08 07:51:42;;;;;;;6.70;5.87;;;7.70;99.90;;;;;;5078252;28;20689;-93
2020/12/08 07:54:08;;;;;;;8.53;6.27;;;7.70;99.90;;;;;;5074880;28;20204;-92
2020/12/08 07:56:36;;;;;;;8.00;6.47;;;7.60;99.90;;;;;;5074318;28;20235;-92
2020/12/08 07:59:06;;;;;;;6.73;6.07;;;7.60;99.90;;;;;;5085132;28;20264;-90
2020/12/08 08:01:39;;;;;;;6.87;6.13;;;7.70;99.90;;;;;;5093358;28;20232;-90
2020/12/08 08:04:05;;;;;;;7.07;5.53;;;7.70;99.90;;;;;;5103439;28;20214;-92
2020/12/08 08:06:32;;;;;;;7.03;6.13;;;7.80;99.90;;;;;;5129043;28;20228;-91
2020/12/08 08:09:06;;;;;;;7.10;6.17;;;7.80;99.90;;;;;;5488329;22;20228;-89
2020/12/08 08:11:33;;;;;;;6.50;5.80;;;7.70;99.90;;;;;;5155547;27;20212;-90
2020/12/08 08:13:59;;;;;;;7.93;6.30;;;7.70;99.90;;;;;;5154362;27;20193;-91
2020/12/08 08:16:29;;;;;;;6.53;5.63;;;7.70;99.90;;;;;;5130253;28;20240;-92
2020/12/08 08:18:56;;;;;;;6.50;5.80;;;7.70;99.90;;;;;;5121410;28;20236;-91
2020/12/08 08:24:05;;;;;;;8.43;6.30;;;7.70;99.90;;;;;;5124479;28;20193;-93
2020/12/08 08:26:31;;;;;;;6.37;5.70;;;7.70;99.90;;;;;;5140123;28;20214;-91
2020/12/08 08:28:58;;;;;;;8.77;6.53;;;7.80;99.90;;;;;;5135451;28;20281;-91
2020/12/08 08:31:39;;;;;;;6.70;5.73;;;7.70;99.90;;;;;;5135771;28;20201;-91
2020/12/08 08:34:06;;;;;;;6.57;5.97;;;7.70;99.90;;;;;;5132153;28;20269;-92
2020/12/08 08:36:34;;;;;;;9.67;6.30;;;7.90;99.90;;;;;;5129778;28;20232;-91
2020/12/08 08:39:01;;;;;;;9.40;6.17;;;8.00;99.90;;;;;;5132769;28;20266;-91
2020/12/08 08:41:27;;;;;;;6.83;5.87;;;8.10;99.90;;;;;;5125509;28;20284;-91
2020/12/08 08:43:54;;;;;;;8.10;6.47;;;8.00;99.90;;;;;;5123804;28;20648;-91
2020/12/08 08:46:20;;;;;;;7.97;5.93;;;8.00;99.90;;;;;;5124427;28;20201;-92
2020/12/08 08:48:47;;;;;;;8.80;6.77;;;7.90;99.90;;;;;;5122934;28;20206;-91
2020/12/08 08:51:15;;;;;;;7.63;5.73;;;7.80;99.90;;;;;;5105353;28;20292;-91
2020/12/08 08:53:41;;;;;;;7.40;6.53;;;7.60;99.90;;;;;;5121565;28;20514;-92
2020/12/08 08:56:08;;;;;;;9.87;6.73;;;7.50;99.90;;;;;;5122464;28;20233;-92
2020/12/08 08:58:35;;;;;;;7.60;6.00;;;7.50;99.90;;;;;;5122268;28;20213;-91
2020/12/08 09:01:01;;;;;;;8.13;6.20;;;7.60;99.90;;;;;;5121736;28;20255;-91
2020/12/08 09:03:29;;;;;;;7.23;6.20;;;7.70;99.90;;;;;;5122374;28;20206;-92
2020/12/08 09:05:56;;;;;;;8.63;6.13;;;7.90;99.90;;;;;;5122349;28;20222;-91
2020/12/08 09:08:24;;;;;;;8.73;6.90;;;8.00;99.90;;;;;;5122612;28;20229;-91
2020/12/08 09:10:50;;;;;;;8.23;6.80;;;8.00;99.90;;;;;;5123428;28;20243;-91
2020/12/08 09:13:17;;;;;;;7.83;6.40;;;8.00;99.90;;;;;;5129233;28;20209;-92
2020/12/08 09:15:53;;;;;;;7.70;6.33;;;8.00;99.90;;;;;;5128487;28;20233;-92
2020/12/08 09:18:20;;;;;;;10.20;6.70;;;8.00;99.90;;;;;;5123932;28;20210;-92
2020/12/08 09:20:47;;;;;;;7.13;5.87;;;8.10;99.90;;;;;;5123302;28;20206;-91
2020/12/08 09:23:17;;;;;;;7.90;6.70;;;8.20;99.90;;;;;;5124696;28;20209;-92
2020/12/08 09:25:50;;;;;;;9.97;7.10;;;8.20;99.90;;;;;;5120622;28;20209;-91
2020/12/08 09:28:16;;;;;;;7.63;6.73;;;8.20;99.90;;;;;;5122307;28;20209;-91
2020/12/08 09:30:44;;;;;;;7.50;6.50;;;8.20;99.90;;;;;;5123332;28;20228;-91
2020/12/08 09:33:10;;;;;;;9.40;6.23;;;8.20;99.90;;;;;;5122878;28;20213;-92
2020/12/08 09:35:37;;;;;;;9.17;6.67;;;8.20;99.90;;;;;;5125412;28;20230;-92
2020/12/08 09:38:03;;;;;;;7.90;7.10;;;8.20;99.90;;;;;;5122576;28;20538;-91
2020/12/08 09:40:30;;;;;;;7.17;6.27;;;8.10;99.90;;;;;;5122676;28;20201;-91
2020/12/08 09:42:57;;;;;;;7.43;6.10;;;8.20;99.90;;;;;;5123044;28;20218;-91
2020/12/08 09:45:35;;;;;;;7.90;6.80;;;8.20;99.90;;;;;;5123583;28;20198;-91
2020/12/08 09:48:05;;;;;;;8.13;6.20;;;8.30;99.90;;;;;;5123874;28;20205;-90
2020/12/08 09:50:39;;;;;;;8.60;6.73;;;8.20;99.90;;;;;;5130939;28;20209;-90
2020/12/08 09:53:05;;;;;;;7.90;7.10;;;8.20;99.90;;;;;;5127655;28;20257;-91
2020/12/08 09:55:31;;;;;;;7.70;6.90;;;8.20;99.90;;;;;;5130551;28;20576;-90
2020/12/08 09:58:00;;;;;;;8.97;6.80;;;8.20;99.90;;;;;;5123416;28;20206;-91
2020/12/08 10:00:26;;;;;;;8.13;7.10;;;8.30;99.90;;;;;;5121825;28;20201;-91
2020/12/08 10:02:52;;;;;;;9.70;7.63;;;8.30;99.90;;;;;;5121592;28;20206;-91
2020/12/08 10:05:19;;;;;;;7.83;6.80;;;8.30;99.90;;;;;;5125070;28;20641;-90
2020/12/08 10:07:45;;;;;;;9.13;7.43;;;8.40;99.90;;;;;;5121800;28;20224;-91
2020/12/08 10:10:12;;;;;;;8.53;6.93;;;8.40;99.90;;;;;;5121755;28;20225;-91
2020/12/08 10:12:39;;;;;;;9.33;6.93;;;8.40;99.90;;;;;;5123249;28;20213;-91
2020/12/08 10:15:06;;;;;;;8.27;7.17;;;8.30;99.90;;;;;;5120211;28;20213;-91
2020/12/08 10:17:33;;;;;;;8.13;7.33;;;8.30;99.90;;;;;;5121403;28;20201;-92
2020/12/08 10:22:46;;;;;;;10.17;7.20;;;8.30;99.90;;;;;;5120623;28;20208;-91
2020/12/08 10:25:13;;;;;;;8.03;7.20;;;8.40;99.90;;;;;;5122527;28;20560;-91
2020/12/08 10:27:42;;;;;;;8.40;7.13;;;8.40;99.90;;;;;;5122696;28;20202;-91
2020/12/08 10:30:09;;;;;;;9.10;6.50;;;8.40;99.90;;;;;;5128556;28;20202;-90
2020/12/08 10:32:36;;;;;;;9.30;7.53;;;8.40;99.90;;;;;;5134204;28;20220;-92
2020/12/08 10:35:02;;;;;;;9.10;7.67;;;8.40;99.90;;;;;;5133290;28;20209;-92
2020/12/08 10:37:29;;;;;;;8.93;7.57;;;8.40;99.90;;;;;;5126623;28;20209;-91
2020/12/08 10:39:55;;;;;;;9.80;8.27;;;8.50;99.90;;;;;;5102477;28;20210;-91
2020/12/08 10:42:26;;;;;;;11.37;8.07;;;8.60;99.90;;;;;;5122567;28;20201;-91
2020/12/08 10:44:52;;;;;;;12.33;8.93;;;8.50;99.90;;;;;;5117623;28;20210;-92
2020/12/08 10:47:24;;;;;;;10.07;8.00;;;8.50;99.90;;;;;;5120120;28;20200;-93
2020/12/08 10:49:54;;;;;;;9.83;7.93;;;8.50;99.90;;;;;;5121121;28;20286;-91
2020/12/08 10:52:20;;;;;;;10.23;8.60;;;8.40;99.90;;;;;;5119349;27;20235;-92
2020/12/08 10:54:46;;;;;;;9.40;7.57;;;8.30;99.90;;;;;;5119059;28;20210;-91
2020/12/08 10:57:13;;;;;;;10.27;8.03;;;8.30;99.90;;;;;;5118526;28;20237;-91
2020/12/08 10:59:39;;;;;;;12.47;9.03;;;8.40;99.90;;;;;;5119795;28;20198;-91
2020/12/08 11:02:06;;;;;;;10.50;8.87;;;8.40;99.90;;;;;;5118749;28;20216;-91
2020/12/08 11:04:34;;;;;;;12.03;9.00;;;8.40;99.90;;;;;;5119317;28;20210;-92
2020/12/08 11:07:01;;;;;;;9.73;8.43;;;8.40;99.90;;;;;;5118138;28;20206;-91
2020/12/08 11:09:27;;;;;;;10.87;8.53;;;8.40;99.90;;;;;;5118242;28;20321;-91
2020/12/08 11:11:54;;;;;;;11.13;8.90;;;8.50;99.90;;;;;;5101919;28;20245;-91
2020/12/08 11:14:20;;;;;;;10.20;8.53;;;8.60;99.90;;;;;;5118519;28;20206;-91
2020/12/08 11:16:47;;;;;;;11.37;8.97;;;8.60;99.90;;;;;;5118834;28;20226;-91
2020/12/08 11:19:13;;;;;;;10.87;9.23;;;8.50;99.90;;;;;;5120108;28;20213;-89
2020/12/08 11:21:41;;;;;;;11.80;9.87;;;8.40;99.90;;;;;;5119278;28;20193;-91
2020/12/08 11:24:10;;;;;;;11.33;9.63;;;8.50;99.90;;;;;;5118912;28;20233;-91
2020/12/08 11:26:36;;;;;;;10.00;8.60;;;8.50;99.90;;;;;;5118087;28;20260;-92
2020/12/08 11:29:08;;;;;;;10.37;9.30;;;8.50;99.90;;;;;;5122903;28;20212;-91
2020/12/08 11:31:35;;;;;;;10.87;9.47;;;8.50;99.90;;;;;;5121108;28;20191;-91
2020/12/08 11:34:01;;;;;;;10.80;9.70;;;8.60;99.90;;;;;;5118098;28;20204;-91
2020/12/08 11:36:30;;;;;;;10.90;9.70;;;8.60;99.90;;;;;;5119335;28;20240;-91
2020/12/08 11:39:00;;;;;;;12.27;9.80;;;8.60;99.90;;;;;;5119214;28;20208;-92
2020/12/08 11:41:26;;;;;;;11.30;9.37;;;8.50;99.90;;;;;;5108850;28;20270;-92
2020/12/08 11:43:54;;;;;;;13.57;10.23;;;8.60;99.90;;;;;;5122485;28;20202;-92
2020/12/08 11:46:20;;;;;;;12.53;10.20;;;8.80;99.90;;;;;;5131589;28;20201;-90
2020/12/08 11:48:47;;;;;;;11.50;10.30;;;8.90;99.90;;;;;;5136384;28;20194;-91
2020/12/08 11:51:14;;;;;;;11.27;9.93;;;9.00;99.90;;;;;;5128918;28;20206;-91
2020/12/08 11:53:40;;;;;;;11.70;10.23;;;8.90;99.90;;;;;;5123570;28;20293;-92
2020/12/08 11:56:09;;;;;;;11.13;9.93;;;8.90;99.90;;;;;;5123105;28;20236;-92
2020/12/08 11:58:38;;;;;;;10.80;9.07;;;9.00;99.90;;;;;;5104143;28;20217;-91
2020/12/08 12:01:06;;;;;;;13.63;9.87;;;9.10;99.90;;;;;;5122240;28;20529;-92
2020/12/08 12:03:33;;;;;;;13.17;10.07;;;9.10;99.90;;;;;;5124479;28;20208;-91
2020/12/08 12:05:59;;;;;;;11.87;10.13;;;9.20;99.90;;;;;;5123556;28;20289;-91
2020/12/08 12:08:25;;;;;;;12.83;10.47;;;9.10;99.90;;;;;;5122595;28;20233;-91
2020/12/08 12:10:52;;;;;;;12.23;9.83;;;9.00;99.90;;;;;;5121173;28;20533;-91
2020/12/08 12:13:19;;;;;;;12.73;9.83;;;9.00;99.90;;;;;;5122744;28;20292;-91
2020/12/08 12:15:46;;;;;;;13.23;9.87;;;9.20;99.90;;;;;;5122918;28;20218;-92
2020/12/08 12:18:12;;;;;;;11.77;10.27;;;9.30;99.90;;;;;;5120646;28;20198;-92
2020/12/08 12:20:41;;;;;;;11.60;10.40;;;9.30;99.90;;;;;;5124566;28;20269;-92
2020/12/08 12:23:07;;;;;;;13.87;11.43;;;9.10;99.90;;;;;;5122816;28;20202;-90
2020/12/08 12:25:33;;;;;;;14.30;11.77;;;9.00;99.90;;;;;;5133342;28;20216;-91
2020/12/08 12:28:00;;;;;;;14.53;10.90;;;8.80;99.90;;;;;;5134799;28;20217;-91
2020/12/08 12:30:27;;;;;;;12.80;11.50;;;8.70;99.90;;;;;;5125114;28;20237;-92
2020/12/08 12:32:54;;;;;;;15.30;11.63;;;8.80;99.90;;;;;;5132461;28;20198;-91
2020/12/08 12:35:20;;;;;;;13.53;10.97;;;8.80;99.90;;;;;;5128788;28;20217;-92
2020/12/08 12:37:48;;;;;;;15.93;12.03;;;8.80;99.90;;;;;;5123179;28;20209;-92
2020/12/08 12:40:14;;;;;;;14.70;11.80;;;9.00;99.90;;;;;;5122559;28;20198;-92
2020/12/08 12:42:41;;;;;;;15.33;12.37;;;8.90;99.90;;;;;;5122396;28;20605;-92
2020/12/08 12:45:07;;;;;;;13.97;11.73;;;8.90;99.90;;;;;;5122157;28;20209;-91
2020/12/08 12:47:34;;;;;;;14.07;11.37;;;8.90;99.90;;;;;;5121651;28;20221;-91
2020/12/08 12:50:01;;;;;;;16.87;11.93;;;8.90;99.90;;;;;;5121657;28;20202;-91
2020/12/08 12:52:28;;;;;;;14.47;11.63;;;8.80;99.90;;;;;;5121252;28;20206;-91
2020/12/08 12:54:54;;;;;;;16.10;12.10;;;8.90;99.90;;;;;;5121574;28;20288;-91
2020/12/08 12:57:20;;;;;;;14.53;12.07;;;9.00;99.90;;;;;;5130328;28;20233;-92
2020/12/08 12:59:47;;;;;;;16.23;12.90;;;9.00;99.90;;;;;;5134539;28;20197;-91
2020/12/08 13:02:13;;;;;;;16.30;12.40;;;8.90;99.90;;;;;;5131891;28;20270;-92
2020/12/08 13:04:41;;;;;;;15.23;12.60;;;8.90;99.90;;;;;;5124151;28;20213;-92
2020/12/08 13:07:07;;;;;;;15.07;11.97;;;8.90;99.90;;;;;;5123746;28;20220;-91
2020/12/08 13:09:39;;;;;;;16.93;12.90;;;8.90;99.90;;;;;;5122497;28;20236;-91
2020/12/08 13:12:06;;;;;;;17.23;12.47;;;8.80;99.90;;;;;;5122164;28;20236;-92
2020/12/08 13:14:32;;;;;;;17.00;13.10;;;8.80;99.90;;;;;;5121684;28;20210;-92
2020/12/08 13:16:58;;;;;;;17.57;12.57;;;8.80;99.90;;;;;;5122319;28;20243;-92
2020/12/08 13:19:25;;;;;;;15.23;12.03;;;8.80;99.90;;;;;;5122541;28;20205;-92
2020/12/08 13:21:53;;;;;;;17.10;13.43;;;8.80;99.90;;;;;;5122412;28;20293;-92
2020/12/08 13:24:20;;;;;;;19.57;14.10;;;8.90;99.90;;;;;;5121359;28;20202;-92
2020/12/08 13:26:48;;;;;;;19.87;13.47;;;8.80;99.90;;;;;;5121329;28;20682;-92
2020/12/08 13:29:18;;;;;;;17.33;13.67;;;8.70;99.90;;;;;;5122648;28;20209;-92
2020/12/08 13:31:48;;;;;;;18.77;13.37;;;8.60;99.90;;;;;;5121398;28;20198;-92
2020/12/08 13:34:14;;;;;;;19.30;14.30;;;8.60;99.90;;;;;;5119262;28;20206;-93
2020/12/08 13:36:49;;;;;;;18.43;14.27;;;8.60;99.90;;;;;;5120807;28;20225;-91
2020/12/08 13:39:17;;;;;;;19.23;14.07;;;8.60;99.90;;;;;;5121538;28;20214;-92
2020/12/08 13:41:46;;;;;;;22.03;14.83;;;8.60;99.90;;;;;;5120336;28;20210;-92
2020/12/08 13:44:26;;;;;;;20.57;15.50;;;8.60;99.90;;;;;;5123689;28;20198;-91
2020/12/08 13:46:56;;;;;;;24.57;17.23;;;8.50;99.90;;;;;;5120973;28;20202;-91
2020/12/08 13:49:23;;;;;;;24.53;16.50;;;8.40;99.90;;;;;;5121251;28;20323;-92
2020/12/08 13:51:49;;;;;;;24.47;17.00;;;8.40;99.90;;;;;;5123542;28;20213;-91
2020/12/08 13:54:17;;;;;;;24.83;16.90;;;8.30;99.90;;;;;;5121152;28;20202;-92
2020/12/08 13:56:44;;;;;;;26.27;17.90;;;8.30;99.90;;;;;;5120624;28;20221;-91
2020/12/08 13:59:11;;;;;;;28.10;17.73;;;8.20;99.90;;;;;;5126583;28;20295;-92
2020/12/08 14:01:40;;;;;;;27.33;17.63;;;8.30;99.90;;;;;;5122553;28;20210;-92
2020/12/08 14:04:06;;;;;;;27.57;18.00;;;8.30;99.90;;;;;;5121135;28;20270;-92
2020/12/08 14:06:32;;;;;;;29.97;19.07;;;8.30;99.90;;;;;;5122282;28;20202;-91
2020/12/08 14:08:59;;;;;;;31.70;19.53;;;8.40;99.90;;;;;;5124597;28;20236;-91
2020/12/08 14:11:27;;;;;;;30.87;18.83;;;8.40;99.90;;;;;;5122330;28;20269;-92
2020/12/08 14:13:54;;;;;;;32.27;19.53;;;8.30;99.90;;;;;;5122618;28;20305;-93
2020/12/08 14:16:20;;;;;;;33.20;18.33;;;8.30;99.90;;;;;;5124449;28;20226;-92
2020/12/08 14:18:46;;;;;;;32.87;19.50;;;8.30;99.90;;;;;;5134958;28;20220;-92
2020/12/08 14:21:14;;;;;;;32.73;19.07;;;8.10;99.90;;;;;;5135959;28;20205;-92
2020/12/08 14:23:41;;;;;;;28.83;18.23;;;8.10;99.90;;;;;;5136770;28;20209;-92
2020/12/08 14:26:07;;;;;;;35.90;18.80;;;8.00;99.90;;;;;;5136615;28;20247;-92
2020/12/08 14:28:35;;;;;;;31.47;18.93;;;8.10;99.90;;;;;;5137383;28;20189;-92
2020/12/08 14:31:03;;;;;;;28.97;18.03;;;8.00;99.90;;;;;;5137368;28;20251;-92
2020/12/08 14:33:29;;;;;;;35.50;19.57;;;8.00;99.90;;;;;;5137237;28;20197;-91
2020/12/08 14:35:55;;;;;;;34.70;20.67;;;8.00;99.90;;;;;;5137193;28;20232;-91
2020/12/08 14:38:22;;;;;;;37.90;20.97;;;8.00;99.90;;;;;;5137239;28;20258;-91
2020/12/08 14:40:49;;;;;;;35.07;20.43;;;7.90;99.90;;;;;;5137259;28;20196;-91
2020/12/08 14:43:15;;;;;;;35.23;21.00;;;7.90;99.90;;;;;;5145307;27;20279;-92
2020/12/08 14:45:45;;;;;;;38.57;21.17;;;7.80;99.90;;;;;;5158027;27;20207;-92
2020/12/08 14:48:12;;;;;;;37.87;21.63;;;7.70;99.90;;;;;;5139291;27;20269;-91
2020/12/08 14:50:40;;;;;;;38.40;20.17;;;7.60;99.90;;;;;;5131749;28;20257;-92
2020/12/08 14:53:09;;;;;;;36.60;21.47;;;7.60;99.90;;;;;;5130817;28;20405;-92
2020/12/08 14:55:35;;;;;;;36.93;21.50;;;7.70;99.90;;;;;;5132697;28;20216;-92
2020/12/08 14:58:02;;;;;;;38.90;22.20;;;7.70;99.90;;;;;;5131913;28;20261;-90
2020/12/08 15:00:28;;;;;;;35.40;20.83;;;7.70;99.90;;;;;;5132965;28;20199;-92
2020/12/08 15:02:59;;;;;;;32.43;20.17;;;7.70;99.90;;;;;;5131790;28;20213;-91
2020/12/08 15:05:25;;;;;;;38.83;21.43;;;7.80;99.90;;;;;;5130096;28;20202;-91
2020/12/08 15:07:52;;;;;;;33.53;20.47;;;7.80;99.90;;;;;;5133637;28;20679;-92
2020/12/08 15:10:19;;;;;;;34.90;20.90;;;7.80;99.90;;;;;;5133483;28;20196;-91
2020/12/08 15:12:49;;;;;;;34.13;21.03;;;7.80;99.90;;;;;;5130425;28;20241;-91
2020/12/08 15:15:15;;;;;;;37.07;20.53;;;7.90;99.90;;;;;;5129197;28;20564;-92
2020/12/08 15:17:44;;;;;;;35.20;21.23;;;7.90;99.90;;;;;;5124863;28;20295;-92
2020/12/08 15:20:12;;;;;;;32.33;20.40;;;8.00;99.90;;;;;;5125922;28;20646;-91
2020/12/08 15:22:39;;;;;;;36.07;19.87;;;8.00;99.90;;;;;;5125901;28;20225;-92
2020/12/08 15:25:05;;;;;;;32.73;18.93;;;8.00;99.90;;;;;;5126720;28;20198;-91
2020/12/08 15:27:31;;;;;;;28.50;18.03;;;7.90;99.90;;;;;;5129643;28;20211;-92
2020/12/08 15:29:58;;;;;;;27.77;18.63;;;7.80;99.90;;;;;;5127390;28;20217;-92
2020/12/08 15:32:24;;;;;;;29.37;19.50;;;7.80;99.90;;;;;;5126938;28;20205;-92
2020/12/08 15:34:50;;;;;;;28.63;19.97;;;7.80;99.90;;;;;;5127372;28;20204;-91
2020/12/08 15:37:21;;;;;;;31.83;19.50;;;7.80;99.90;;;;;;5129062;28;20236;-91
2020/12/08 15:39:47;;;;;;;32.27;21.07;;;7.80;99.90;;;;;;5127465;28;20269;-92
2020/12/08 15:42:17;;;;;;;31.67;19.47;;;7.70;99.90;;;;;;5127372;28;20236;-91
2020/12/08 15:44:43;;;;;;;31.47;21.07;;;7.60;99.90;;;;;;5107400;28;20205;-91
2020/12/08 15:47:12;;;;;;;31.97;20.70;;;7.60;99.90;;;;;;5107689;28;20220;-92
2020/12/08 15:49:39;;;;;;;30.33;20.00;;;7.60;99.90;;;;;;5107330;28;20220;-92
2020/12/08 15:52:10;;;;;;;33.50;21.40;;;7.60;99.90;;;;;;5109663;28;20209;-91
2020/12/08 15:54:40;;;;;;;34.50;21.77;;;7.60;99.90;;;;;;5116634;28;20235;-92
2020/12/08 15:57:08;;;;;;;37.37;22.17;;;7.50;99.90;;;;;;5118098;28;20233;-92
2020/12/08 15:59:34;;;;;;;35.70;21.20;;;7.50;99.90;;;;;;5134775;28;20234;-91
2020/12/08 16:02:02;;;;;;;35.03;22.87;;;7.50;99.90;;;;;;5131909;28;20206;-92
2020/12/08 16:04:29;;;;;;;34.57;21.83;;;7.50;99.90;;;;;;5129828;28;20199;-92
2020/12/08 16:06:55;;;;;;;31.53;20.73;;;7.60;99.90;;;;;;5129185;28;20290;-92
2020/12/08 16:09:25;;;;;;;31.77;21.07;;;7.50;99.90;;;;;;5129469;28;20306;-91
2020/12/08 16:11:58;;;;;;;34.37;21.10;;;7.40;99.90;;;;;;5115329;28;20651;-91
2020/12/08 16:14:24;;;;;;;36.10;21.87;;;7.50;99.90;;;;;;5128245;28;20205;-92
2020/12/08 16:16:51;;;;;;;36.17;21.73;;;7.40;99.90;;;;;;5129392;28;20269;-92
2020/12/08 16:19:19;;;;;;;33.53;21.40;;;7.30;99.90;;;;;;5130777;28;20208;-91
2020/12/08 16:21:45;;;;;;;35.57;21.57;;;7.40;99.90;;;;;;5133572;28;20203;-92
2020/12/08 16:24:12;;;;;;;34.50;21.87;;;7.40;99.90;;;;;;5133088;28;20212;-92
2020/12/08 16:26:38;;;;;;;35.83;22.13;;;7.40;99.90;;;;;;5130087;28;20207;-92
2020/12/08 16:29:08;;;;;;;37.03;21.13;;;7.40;99.90;;;;;;5128495;28;20235;-92
2020/12/08 16:31:34;;;;;;;36.13;22.97;;;7.50;99.90;;;;;;5128615;28;20209;-93
2020/12/08 16:34:01;;;;;;;37.80;22.57;;;7.60;99.90;;;;;;5128642;28;20208;-93
2020/12/08 16:36:27;;;;;;;33.30;20.63;;;7.70;99.90;;;;;;5129960;28;20313;-92
2020/12/08 16:38:54;;;;;;;32.60;21.10;;;7.70;99.90;;;;;;5126890;28;20204;-92
2020/12/08 16:41:28;;;;;;;36.37;23.70;;;7.70;99.90;;;;;;5125522;28;20254;-92
2020/12/08 16:43:54;;;;;;;33.80;22.30;;;7.60;99.90;;;;;;5141180;27;20286;-92
2020/12/08 16:46:21;;;;;;;31.03;21.87;;;7.70;99.90;;;;;;5132665;27;20223;-92
2020/12/08 16:48:48;;;;;;;38.20;23.13;;;7.80;99.90;;;;;;5123607;28;20213;-92
2020/12/08 16:51:15;;;;;;;34.60;21.73;;;7.90;99.90;;;;;;5123924;28;20213;-93
2020/12/08 16:53:41;;;;;;;32.97;21.63;;;7.80;99.90;;;;;;5125924;28;20201;-91
2020/12/08 16:56:09;;;;;;;35.13;21.73;;;7.90;99.90;;;;;;5123534;28;20313;-92
2020/12/08 16:58:35;;;;;;;32.57;21.63;;;7.80;99.90;;;;;;5123654;28;20205;-93
2020/12/08 17:01:03;;;;;;;32.47;21.80;;;7.80;99.90;;;;;;5124795;28;20205;-93
2020/12/08 17:03:31;;;;;;;33.37;22.37;;;7.80;99.90;;;;;;5123993;28;20301;-92
2020/12/08 17:05:57;;;;;;;32.40;21.50;;;7.80;99.90;;;;;;5124690;28;20256;-92
2020/12/08 17:08:24;;;;;;;33.03;20.73;;;7.80;99.90;;;;;;5124334;28;20237;-93
2020/12/08 17:10:50;;;;;;;33.87;21.47;;;7.80;99.90;;;;;;5121911;28;20295;-94
2020/12/08 17:13:17;;;;;;;32.97;20.30;;;7.90;99.90;;;;;;5131610;28;20265;-92
2020/12/08 17:15:44;;;;;;;33.10;21.60;;;7.90;99.90;;;;;;5129410;28;20224;-93
2020/12/08 17:18:10;;;;;;;32.20;21.40;;;8.00;99.90;;;;;;5130539;28;20224;-92
2020/12/08 17:20:41;;;;;;;32.33;21.07;;;8.00;99.90;;;;;;5106904;28;20269;-93
2020/12/08 17:23:15;;;;;;;31.10;21.13;;;8.00;99.90;;;;;;5130747;28;20272;-92
2020/12/08 17:25:41;;;;;;;35.00;21.80;;;8.00;99.90;;;;;;5128734;28;20208;-92
2020/12/08 17:28:12;;;;;;;31.33;21.17;;;8.00;99.90;;;;;;5131140;28;20220;-91
2020/12/08 17:30:38;;;;;;;33.40;22.17;;;8.00;99.90;;;;;;5132159;28;20202;-92
2020/12/08 17:33:04;;;;;;;32.77;21.57;;;8.00;99.90;;;;;;5130312;28;20277;-92
2020/12/08 17:35:31;;;;;;;30.03;20.83;;;8.00;99.90;;;;;;5128915;28;20202;-92
2020/12/08 17:37:58;;;;;;;31.03;21.00;;;8.10;99.90;;;;;;5125443;28;20233;-92
2020/12/08 17:40:25;;;;;;;32.43;22.33;;;8.00;99.90;;;;;;5130952;28;20201;-91
2020/12/08 17:42:52;;;;;;;31.97;20.97;;;8.00;99.90;;;;;;5113434;28;20289;-92
2020/12/08 17:45:19;;;;;;;30.33;21.07;;;8.00;99.90;;;;;;5124578;28;20521;-92
2020/12/08 17:47:46;;;;;;;32.17;21.67;;;7.90;99.90;;;;;;5128020;28;20233;-90
2020/12/08 17:50:14;;;;;;;33.13;21.00;;;8.00;99.90;;;;;;5127514;28;20202;-92
2020/12/08 17:52:41;;;;;;;32.33;22.17;;;8.00;99.90;;;;;;5113231;28;20209;-92
2020/12/08 17:55:12;;;;;;;30.07;20.77;;;8.00;99.90;;;;;;5131408;28;20226;-92
2020/12/08 17:57:39;;;;;;;33.73;21.87;;;7.90;99.90;;;;;;5136276;28;20210;-92
2020/12/08 18:00:08;;;;;;;32.60;21.97;;;8.00;99.90;;;;;;5136941;28;20307;-92
2020/12/08 18:02:35;;;;;;;31.03;21.67;;;7.90;99.90;;;;;;5137807;27;20216;-91
2020/12/08 18:05:02;;;;;;;31.70;21.57;;;8.00;99.90;;;;;;5137921;27;20185;-91
2020/12/08 18:07:34;;;;;;;31.63;21.83;;;8.00;99.90;;;;;;5138142;27;20209;-92
2020/12/08 18:10:01;;;;;;;33.93;22.43;;;8.00;99.90;;;;;;5137164;27;20286;-91
2020/12/08 18:12:31;;;;;;;34.57;22.67;;;8.00;99.90;;;;;;5134252;28;20205;-92
2020/12/08 18:14:58;;;;;;;31.90;20.83;;;8.10;99.90;;;;;;5137909;28;20197;-92
2020/12/08 18:17:25;;;;;;;32.17;21.37;;;8.20;99.90;;;;;;5137079;28;20263;-91
2020/12/08 18:19:51;;;;;;;29.93;20.77;;;8.10;99.90;;;;;;5137108;28;20261;-92
2020/12/08 18:22:18;;;;;;;31.60;21.87;;;8.10;99.90;;;;;;5136338;28;20213;-91
2020/12/08 18:24:45;;;;;;;29.77;20.87;;;8.20;99.90;;;;;;5127580;28;20257;-90
2020/12/08 18:27:11;;;;;;;33.50;21.17;;;8.30;99.90;;;;;;5127741;28;20267;-92
2020/12/08 18:29:42;;;;;;;30.77;20.73;;;8.20;99.90;;;;;;5128417;28;20206;-91
2020/12/08 18:32:10;;;;;;;32.03;21.30;;;8.30;99.90;;;;;;5132492;28;20205;-92
2020/12/08 18:34:39;;;;;;;29.70;20.83;;;8.20;99.90;;;;;;5133868;28;20213;-90
2020/12/08 18:37:06;;;;;;;32.77;20.73;;;8.20;99.90;;;;;;5133278;28;20230;-91
2020/12/08 18:39:33;;;;;;;29.87;21.33;;;8.10;99.90;;;;;;5130531;28;20240;-92
2020/12/08 18:42:00;;;;;;;30.63;20.23;;;8.00;99.90;;;;;;5132258;28;20265;-93
2020/12/08 18:44:27;;;;;;;29.97;21.03;;;7.90;99.90;;;;;;5128731;28;20224;-93
2020/12/08 18:46:54;;;;;;;29.23;21.70;;;7.90;99.90;;;;;;5131348;28;20209;-91
2020/12/08 18:49:21;;;;;;;28.07;20.37;;;8.00;99.90;;;;;;5131486;28;20209;-91
2020/12/08 18:51:51;;;;;;;30.37;21.10;;;8.00;99.90;;;;;;5130486;28;20314;-91
2020/12/08 18:54:18;;;;;;;31.67;20.90;;;8.10;99.90;;;;;;5129000;28;20251;-91
2020/12/08 18:56:45;;;;;;;31.70;21.80;;;8.10;99.90;;;;;;5130327;28;20244;-90